createdAt,value
2023-02-24T00:01:18.891Z,8.47
2023-02-24T00:03:45.582Z,8.40
2023-02-24T00:06:12.216Z,8.45
2023-02-24T00:08:39.918Z,8.47
2023-02-24T00:11:14.397Z,8.54
2023-02-24T00:13:46.372Z,8.50
2023-02-24T00:16:17.704Z,8.47
2023-02-24T00:18:45.366Z,8.45
2023-02-24T00:21:14.987Z,8.49
2023-02-24T00:23:48.308Z,8.51
2023-02-24T00:26:16.135Z,8.49
2023-02-24T00:28:44.350Z,8.49
2023-02-24T00:31:16.780Z,8.48
2023-02-24T00:33:45.126Z,8.49
2023-02-24T00:36:24.045Z,8.51
2023-02-24T00:38:57.244Z,8.36
2023-02-24T00:41:32.182Z,8.33
2023-02-24T00:44:06.089Z,8.33
2023-02-24T00:46:44.749Z,8.32
2023-02-24T00:49:17.106Z,8.28
2023-02-24T00:51:48.851Z,8.34
2023-02-24T00:54:17.013Z,8.31
2023-02-24T00:56:45.997Z,8.32
2023-02-24T00:59:14.642Z,8.33
2023-02-24T01:01:42.814Z,8.32
2023-02-24T01:04:13.316Z,8.29
2023-02-24T01:06:45.696Z,8.23
2023-02-24T01:09:15.670Z,8.26
2023-02-24T01:12:22.711Z,8.14
2023-02-24T01:14:51.445Z,8.10
2023-02-24T01:17:19.207Z,8.09
2023-02-24T01:19:47.308Z,7.99
2023-02-24T01:22:15.042Z,7.99
2023-02-24T01:24:43.352Z,8.01
2023-02-24T01:27:12.587Z,8.01
2023-02-24T01:29:39.735Z,8.03
2023-02-24T01:32:16.953Z,8.01
2023-02-24T01:34:43.866Z,7.90
2023-02-24T01:37:10.376Z,7.89
2023-02-24T01:39:37.253Z,7.85
2023-02-24T01:42:04.911Z,7.88
2023-02-24T01:44:32.730Z,7.87
2023-02-24T01:47:03.689Z,7.85
2023-02-24T01:49:38.212Z,7.78
2023-02-24T01:52:08.415Z,7.68
2023-02-24T01:54:52.016Z,7.61
2023-02-24T01:57:19.947Z,7.63
2023-02-24T01:59:48.552Z,7.63
2023-02-24T02:02:15.601Z,7.61
2023-02-24T02:04:53.800Z,7.62
2023-02-24T02:07:23.654Z,7.57
2023-02-24T02:09:50.968Z,7.59
2023-02-24T02:12:17.699Z,7.55
2023-02-24T02:14:52.297Z,7.52
2023-02-24T02:17:51.268Z,7.50
2023-02-24T02:20:56.866Z,7.45
2023-02-24T02:23:58.033Z,7.50
2023-02-24T02:26:42.129Z,7.49
2023-02-24T02:29:11.758Z,7.47
2023-02-24T02:31:41.170Z,7.46
2023-02-24T02:34:35.151Z,7.47
2023-02-24T02:37:05.842Z,7.46
2023-02-24T02:40:21.135Z,7.48
2023-02-24T02:43:03.065Z,7.41
2023-02-24T02:45:35.411Z,7.34
2023-02-24T02:48:13.087Z,7.37
2023-02-24T02:50:45.922Z,7.41
2023-02-24T02:53:18.430Z,7.42
2023-02-24T02:55:49.389Z,7.32
2023-02-24T02:58:26.213Z,7.41
2023-02-24T03:01:02.534Z,7.37
2023-02-24T03:03:33.134Z,7.34
2023-02-24T03:06:04.005Z,7.29
2023-02-24T03:08:34.390Z,7.18
2023-02-24T03:11:01.962Z,7.20
2023-02-24T03:13:31.496Z,7.16
2023-02-24T03:16:08.841Z,7.18
2023-02-24T03:18:39.211Z,6.99
2023-02-24T03:21:13.209Z,6.98
2023-02-24T03:23:48.114Z,6.93
2023-02-24T03:26:41.381Z,6.86
2023-02-24T03:29:19.030Z,6.82
2023-02-24T03:31:52.056Z,6.72
2023-02-24T03:34:24.129Z,6.66
2023-02-24T03:36:50.617Z,6.66
2023-02-24T03:39:17.337Z,6.56
2023-02-24T03:41:57.752Z,6.47
2023-02-24T03:44:24.924Z,6.54
2023-02-24T03:46:55.858Z,6.55
2023-02-24T03:49:25.210Z,6.48
2023-02-24T03:52:00.909Z,6.46
2023-02-24T03:54:35.009Z,6.40
2023-02-24T03:57:55.001Z,6.40
2023-02-24T04:00:38.506Z,6.35
2023-02-24T04:03:13.381Z,6.27
2023-02-24T04:05:47.545Z,6.25
2023-02-24T04:08:15.783Z,6.23
2023-02-24T04:10:52.622Z,6.19
2023-02-24T04:13:52.897Z,6.25
2023-02-24T04:16:29.783Z,6.21
2023-02-24T04:18:59.978Z,6.13
2023-02-24T04:21:28.657Z,6.14
2023-02-24T04:23:55.896Z,6.17
2023-02-24T04:26:24.901Z,6.14
2023-02-24T04:28:52.590Z,6.13
2023-02-24T04:31:21.025Z,6.19
2023-02-24T04:33:50.293Z,6.21
2023-02-24T04:36:21.926Z,6.22
2023-02-24T04:38:48.697Z,6.24
2023-02-24T04:41:21.487Z,6.23
2023-02-24T04:43:50.715Z,6.24
2023-02-24T04:46:19.255Z,6.21
2023-02-24T04:48:46.026Z,6.20
2023-02-24T04:51:13.590Z,6.18
2023-02-24T04:53:40.674Z,6.11
2023-02-24T04:56:08.994Z,6.17
2023-02-24T04:58:38.027Z,6.23
2023-02-24T05:01:11.025Z,6.19
2023-02-24T05:03:38.604Z,6.18
2023-02-24T05:06:06.369Z,6.22
2023-02-24T05:08:33.068Z,6.18
2023-02-24T05:11:03.870Z,6.25
2023-02-24T05:13:32.012Z,6.19
2023-02-24T05:16:04.214Z,6.12
2023-02-24T05:18:36.930Z,6.24
2023-02-24T05:21:27.646Z,6.19
2023-02-24T05:23:54.883Z,6.15
2023-02-24T05:26:25.525Z,6.10
2023-02-24T05:28:54.382Z,6.05
2023-02-24T05:31:26.537Z,5.88
2023-02-24T05:33:57.880Z,5.78
2023-02-24T05:36:26.082Z,5.77
2023-02-24T05:38:57.836Z,5.82
2023-02-24T05:41:32.477Z,5.69
2023-02-24T05:44:02.334Z,5.65
2023-02-24T05:46:32.527Z,5.66
2023-02-24T05:49:08.952Z,5.63
2023-02-24T05:51:39.099Z,5.42
2023-02-24T05:54:13.708Z,5.46
2023-02-24T05:56:44.463Z,5.43
2023-02-24T05:59:12.422Z,5.41
2023-02-24T06:01:45.786Z,5.42
2023-02-24T06:04:20.793Z,5.35
2023-02-24T06:06:52.588Z,5.22
2023-02-24T06:09:23.050Z,5.19
2023-02-24T06:11:50.181Z,4.98
2023-02-24T06:14:17.130Z,5.00
2023-02-24T06:16:43.589Z,5.01
2023-02-24T06:19:12.303Z,4.95
2023-02-24T06:21:43.816Z,4.96
2023-02-24T06:24:14.833Z,4.80
2023-02-24T06:26:45.242Z,4.78
2023-02-24T06:29:14.450Z,4.53
2023-02-24T06:31:41.899Z,4.52
2023-02-24T06:34:13.884Z,4.53
2023-02-24T06:36:40.803Z,4.34
2023-02-24T06:39:08.149Z,4.39
2023-02-24T06:41:35.564Z,4.28
2023-02-24T06:44:02.035Z,4.35
2023-02-24T06:46:28.873Z,4.29
2023-02-24T06:48:56.387Z,4.24
2023-02-24T06:51:24.069Z,4.30
2023-02-24T06:53:52.198Z,4.32
2023-02-24T06:56:19.888Z,4.35
2023-02-24T06:58:55.379Z,4.29
2023-02-24T07:01:28.984Z,4.28
2023-02-24T07:04:17.500Z,4.26
2023-02-24T07:06:55.267Z,4.21
2023-02-24T07:09:24.657Z,4.24
2023-02-24T07:11:52.839Z,4.24
2023-02-24T07:14:21.720Z,4.26
2023-02-24T07:16:53.997Z,4.27
2023-02-24T07:19:24.095Z,4.26
2023-02-24T07:21:52.630Z,4.03
2023-02-24T07:24:32.910Z,3.96
2023-02-24T07:27:02.474Z,3.93
2023-02-24T07:29:30.559Z,3.81
2023-02-24T07:32:05.588Z,3.88
2023-02-24T07:34:33.766Z,3.68
2023-02-24T07:37:06.530Z,3.75
2023-02-24T07:39:33.710Z,3.66
2023-02-24T07:42:00.341Z,3.66
2023-02-24T07:44:29.300Z,3.75
2023-02-24T07:46:56.923Z,3.87
2023-02-24T07:49:29.946Z,3.87
2023-02-24T07:51:58.009Z,3.92
2023-02-24T07:54:29.864Z,3.87
2023-02-24T07:56:58.899Z,3.91
2023-02-24T07:59:28.202Z,3.87
2023-02-24T08:01:56.110Z,3.90
2023-02-24T08:04:28.486Z,3.92
2023-02-24T08:06:56.134Z,3.94
2023-02-24T08:09:43.948Z,3.96
2023-02-24T08:12:17.926Z,3.96
2023-02-24T08:14:52.346Z,3.98
2023-02-24T08:17:23.932Z,4.00
2023-02-24T08:20:00.924Z,3.82
2023-02-24T08:22:35.330Z,3.78
2023-02-24T08:25:05.846Z,3.76
2023-02-24T08:27:38.753Z,3.61
2023-02-24T08:30:07.428Z,3.58
2023-02-24T08:32:43.503Z,3.67
2023-02-24T08:35:15.597Z,3.62
2023-02-24T08:37:47.353Z,3.57
2023-02-24T08:40:33.986Z,3.48
2023-02-24T08:43:17.355Z,3.45
2023-02-24T08:45:59.383Z,3.54
2023-02-24T08:48:37.641Z,3.69
2023-02-24T08:51:10.146Z,3.83
2023-02-24T08:53:40.436Z,4.03
2023-02-24T08:56:11.284Z,3.94
2023-02-24T08:58:48.388Z,3.88
2023-02-24T09:01:19.999Z,3.69
2023-02-24T09:03:48.384Z,3.56
2023-02-24T09:06:17.879Z,3.60
2023-02-24T09:08:45.619Z,3.66
2023-02-24T09:11:15.135Z,3.74
2023-02-24T09:13:51.618Z,3.74
2023-02-24T09:16:19.775Z,3.81
2023-02-24T09:19:06.499Z,3.71
2023-02-24T09:21:48.024Z,3.72
2023-02-24T09:24:16.897Z,3.89
2023-02-24T09:26:43.583Z,3.65
2023-02-24T09:29:30.021Z,3.71
2023-02-24T09:32:04.527Z,3.62
2023-02-24T09:34:36.463Z,3.44
2023-02-24T09:37:04.604Z,3.44
2023-02-24T09:39:54.661Z,3.48
2023-02-24T09:42:23.684Z,3.69
2023-02-24T09:44:55.565Z,3.70
2023-02-24T09:47:39.446Z,3.58
2023-02-24T09:50:14.084Z,3.80
2023-02-24T09:52:41.341Z,4.09
2023-02-24T09:55:24.849Z,4.31
2023-02-24T09:58:26.977Z,4.52
2023-02-24T10:01:00.732Z,4.73
2023-02-24T10:03:47.952Z,4.90
2023-02-24T10:06:21.534Z,5.11
2023-02-24T10:09:13.611Z,5.40
2023-02-24T10:11:54.881Z,5.17
2023-02-24T10:14:51.140Z,5.56
2023-02-24T10:17:23.814Z,5.83
2023-02-24T10:20:00.160Z,6.05
2023-02-24T10:22:28.551Z,5.82
2023-02-24T10:25:25.912Z,6.50
2023-02-24T10:28:06.196Z,6.28
2023-02-24T10:31:10.205Z,7.20
2023-02-24T10:33:45.069Z,7.83
2023-02-24T10:36:18.287Z,7.08
2023-02-24T10:38:45.598Z,7.07
2023-02-24T10:41:14.521Z,6.91
2023-02-24T10:43:47.408Z,6.42
2023-02-24T10:46:42.784Z,6.31
2023-02-24T10:49:11.764Z,6.39
2023-02-24T10:51:44.678Z,6.32
2023-02-24T10:54:42.551Z,6.69
2023-02-24T10:57:38.291Z,6.52
2023-02-24T11:00:31.043Z,6.42
2023-02-24T11:03:08.199Z,6.40
2023-02-24T11:05:44.245Z,6.73
2023-02-24T11:08:15.825Z,6.81
2023-02-24T11:10:53.353Z,6.34
2023-02-24T11:13:39.360Z,6.17
2023-02-24T11:16:27.017Z,6.31
2023-02-24T11:18:54.569Z,6.09
2023-02-24T11:21:24.000Z,5.78
2023-02-24T11:23:57.246Z,5.83
2023-02-24T11:26:27.335Z,6.14
2023-02-24T11:29:23.983Z,6.10
2023-02-24T11:32:16.944Z,6.39
2023-02-24T11:34:58.185Z,6.68
2023-02-24T11:37:34.670Z,7.13
2023-02-24T11:40:09.467Z,7.30
2023-02-24T11:42:56.102Z,7.50
2023-02-24T11:45:31.826Z,7.58
2023-02-24T11:48:19.951Z,8.00
2023-02-24T11:51:05.922Z,8.29
2023-02-24T11:53:42.449Z,8.84
2023-02-24T11:56:29.458Z,9.25
2023-02-24T11:59:19.410Z,9.44
2023-02-24T12:01:52.600Z,9.39
2023-02-24T12:04:35.043Z,8.95
2023-02-24T12:07:08.279Z,8.78
2023-02-24T12:09:47.868Z,8.41
2023-02-24T12:12:21.157Z,8.24
2023-02-24T12:14:54.325Z,7.61
2023-02-24T12:17:29.873Z,7.67
2023-02-24T12:20:06.146Z,7.55
2023-02-24T12:22:56.802Z,7.53
2023-02-24T12:25:35.788Z,7.40
2023-02-24T12:28:18.315Z,7.36
2023-02-24T12:31:05.159Z,7.38
2023-02-24T12:33:43.948Z,7.33
2023-02-24T12:36:29.239Z,7.16
2023-02-24T12:39:09.447Z,7.06
2023-02-24T12:42:02.771Z,7.13
2023-02-24T12:44:47.792Z,6.98
2023-02-24T12:47:17.546Z,6.93
2023-02-24T12:50:06.894Z,6.95
2023-02-24T12:53:21.729Z,6.93
2023-02-24T12:56:06.220Z,6.91
2023-02-24T12:58:36.473Z,6.83
2023-02-24T13:01:15.096Z,6.70
2023-02-24T13:03:53.868Z,6.73
2023-02-24T13:06:30.602Z,6.81
2023-02-24T13:09:03.204Z,7.05
2023-02-24T13:11:38.918Z,7.08
2023-02-24T13:14:21.407Z,7.13
2023-02-24T13:16:48.143Z,7.31
2023-02-24T13:19:20.897Z,7.35
2023-02-24T13:22:27.340Z,7.57
2023-02-24T13:25:09.034Z,7.37
2023-02-24T13:27:38.825Z,7.43
2023-02-24T13:30:12.010Z,7.53
2023-02-24T13:32:47.471Z,7.40
2023-02-24T13:35:13.956Z,7.27
2023-02-24T13:37:42.393Z,7.21
2023-02-24T13:40:16.479Z,7.05
2023-02-24T13:43:04.769Z,7.01
2023-02-24T13:45:36.231Z,7.00
2023-02-24T13:48:14.811Z,7.01
2023-02-24T13:51:10.184Z,6.87
2023-02-24T13:53:57.702Z,6.83
2023-02-24T13:56:38.777Z,6.82
2023-02-24T13:59:53.228Z,6.85
2023-02-24T14:02:27.439Z,6.85
2023-02-24T14:04:58.683Z,6.89
2023-02-24T14:07:30.996Z,6.98
2023-02-24T14:10:06.383Z,6.97
2023-02-24T14:12:35.233Z,6.95
2023-02-24T14:15:03.515Z,6.76
2023-02-24T14:17:31.339Z,6.70
2023-02-24T14:20:09.881Z,6.43
2023-02-24T14:23:03.867Z,6.34
2023-02-24T14:25:36.586Z,6.26
2023-02-24T14:28:03.145Z,6.24
2023-02-24T14:30:38.672Z,6.15
2023-02-24T14:33:07.327Z,6.15
2023-02-24T14:35:46.490Z,6.17
2023-02-24T14:38:32.713Z,6.18
2023-02-24T14:40:59.325Z,6.24
2023-02-24T14:43:26.525Z,6.32
2023-02-24T14:45:54.018Z,6.33
2023-02-24T14:48:31.024Z,6.37
2023-02-24T14:51:09.491Z,6.39
2023-02-24T14:53:39.680Z,6.45
2023-02-24T14:56:06.696Z,6.42
2023-02-24T14:58:35.633Z,6.47
2023-02-24T15:01:24.035Z,6.39
2023-02-24T15:03:54.108Z,6.41
2023-02-24T15:06:31.415Z,6.42
2023-02-24T15:09:01.643Z,6.43
2023-02-24T15:11:30.621Z,6.39
2023-02-24T15:14:00.735Z,6.37
2023-02-24T15:16:36.310Z,6.33
2023-02-24T15:19:03.308Z,6.37
2023-02-24T15:21:31.260Z,6.33
2023-02-24T15:24:02.957Z,6.31
2023-02-24T15:26:32.731Z,6.26
2023-02-24T15:29:01.958Z,6.23
2023-02-24T15:31:29.448Z,6.22
2023-02-24T15:33:59.991Z,6.24
2023-02-24T15:36:36.174Z,6.27
2023-02-24T15:39:10.272Z,6.32
2023-02-24T15:41:43.181Z,6.27
2023-02-24T15:44:33.653Z,6.21
2023-02-24T15:47:02.035Z,6.26
2023-02-24T15:49:28.562Z,6.10
2023-02-24T15:51:55.705Z,6.02
2023-02-24T15:54:29.697Z,5.91
2023-02-24T15:57:00.766Z,5.85
2023-02-24T15:59:28.045Z,5.72
2023-02-24T16:01:54.654Z,5.69
2023-02-24T16:04:22.454Z,5.50
2023-02-24T16:06:54.958Z,5.47
2023-02-24T16:09:40.202Z,5.34
2023-02-24T16:12:15.865Z,5.31
2023-02-24T16:14:43.497Z,5.25
2023-02-24T16:17:40.182Z,5.13
2023-02-24T16:20:27.850Z,5.03
2023-02-24T16:22:56.428Z,4.90
2023-02-24T16:25:23.291Z,4.85
2023-02-24T16:27:50.167Z,4.83
2023-02-24T16:30:20.817Z,4.83
2023-02-24T16:32:49.083Z,4.74
2023-02-24T16:35:15.911Z,4.60
2023-02-24T16:37:46.221Z,4.60
2023-02-24T16:40:30.943Z,4.58
2023-02-24T16:42:57.789Z,4.57
2023-02-24T16:45:28.906Z,4.54
2023-02-24T16:47:57.063Z,4.52
2023-02-24T16:50:33.152Z,4.53
2023-02-24T16:53:00.207Z,4.53
2023-02-24T16:55:26.869Z,4.45
2023-02-24T16:57:53.544Z,4.39
2023-02-24T17:00:24.353Z,4.43
2023-02-24T17:02:51.979Z,4.39
2023-02-24T17:05:24.210Z,4.46
2023-02-24T17:07:53.313Z,4.43
2023-02-24T17:10:20.582Z,4.35
2023-02-24T17:12:47.387Z,4.23
2023-02-24T17:15:17.236Z,4.21
2023-02-24T17:17:43.802Z,4.22
2023-02-24T17:20:15.768Z,4.23
2023-02-24T17:22:43.226Z,4.17
2023-02-24T17:25:15.569Z,4.24
2023-02-24T17:27:42.255Z,4.24
2023-02-24T17:30:13.340Z,4.16
2023-02-24T17:32:39.835Z,4.08
2023-02-24T17:35:06.836Z,4.00
2023-02-24T17:37:33.454Z,3.95
2023-02-24T17:40:00.035Z,3.93
2023-02-24T17:42:26.776Z,3.91
2023-02-24T17:44:53.337Z,3.81
2023-02-24T17:47:19.844Z,3.85
2023-02-24T17:49:46.624Z,3.85
2023-02-24T17:52:13.494Z,3.72
2023-02-24T17:54:40.966Z,3.75
2023-02-24T17:57:09.024Z,3.68
2023-02-24T17:59:36.506Z,3.72
2023-02-24T18:02:03.679Z,3.79
2023-02-24T18:04:30.861Z,3.76
2023-02-24T18:06:57.377Z,3.75
2023-02-24T18:09:23.884Z,3.77
2023-02-24T18:11:50.484Z,3.69
2023-02-24T18:14:16.946Z,3.79
2023-02-24T18:16:43.800Z,3.76
2023-02-24T18:19:10.206Z,3.75
2023-02-24T18:21:36.676Z,3.61
2023-02-24T18:24:03.442Z,3.68
2023-02-24T18:26:30.200Z,3.57
2023-02-24T18:28:58.263Z,3.46
2023-02-24T18:31:26.660Z,3.47
2023-02-24T18:33:54.063Z,3.50
2023-02-24T18:36:21.288Z,3.44
2023-02-24T18:38:48.174Z,3.43
2023-02-24T18:41:20.934Z,3.42
2023-02-24T18:43:48.947Z,3.44
2023-02-24T18:46:16.135Z,3.40
2023-02-24T18:48:46.823Z,3.32
2023-02-24T18:51:17.080Z,3.29
2023-02-24T18:53:43.666Z,3.37
2023-02-24T18:56:13.508Z,3.22
2023-02-24T18:58:40.789Z,3.24
2023-02-24T19:01:13.072Z,3.15
2023-02-24T19:03:40.436Z,3.21
2023-02-24T19:06:07.716Z,3.27
2023-02-24T19:08:34.145Z,3.21
2023-02-24T19:11:07.491Z,3.06
2023-02-24T19:13:33.988Z,3.02
2023-02-24T19:16:00.601Z,3.01
2023-02-24T19:18:27.176Z,3.04
2023-02-24T19:20:54.480Z,3.10
2023-02-24T19:23:21.451Z,2.99
2023-02-24T19:25:47.987Z,3.00
2023-02-24T19:28:14.414Z,2.99
2023-02-24T19:30:41.302Z,2.99
2023-02-24T19:33:07.881Z,2.96
2023-02-24T19:35:34.557Z,2.98
2023-02-24T19:38:01.284Z,2.97
2023-02-24T19:40:27.868Z,2.87
2023-02-24T19:42:54.365Z,2.83
2023-02-24T19:45:21.473Z,2.69
2023-02-24T19:47:47.983Z,2.64
2023-02-24T19:50:16.862Z,2.57
2023-02-24T19:52:43.481Z,2.58
2023-02-24T19:55:11.568Z,2.58
2023-02-24T19:57:38.145Z,2.51
2023-02-24T20:00:06.147Z,2.59
2023-02-24T20:02:32.707Z,2.66
2023-02-24T20:04:59.537Z,2.60
2023-02-24T20:07:26.419Z,2.60
2023-02-24T20:09:54.759Z,2.68
2023-02-24T20:12:21.312Z,2.61
2023-02-24T20:14:47.830Z,2.68
2023-02-24T20:17:14.321Z,2.67
2023-02-24T20:19:40.829Z,2.69
2023-02-24T20:22:07.459Z,2.74
2023-02-24T20:24:35.077Z,2.75
2023-02-24T20:27:04.667Z,2.77
2023-02-24T20:29:36.000Z,2.80
2023-02-24T20:32:03.227Z,2.89
2023-02-24T20:34:29.916Z,2.96
2023-02-24T20:36:56.485Z,2.97
2023-02-24T20:39:24.818Z,2.97
2023-02-24T20:41:53.596Z,3.02
2023-02-24T20:44:20.768Z,3.00
2023-02-24T20:46:47.488Z,3.06
2023-02-24T20:49:16.806Z,3.10
2023-02-24T20:51:43.730Z,3.09
2023-02-24T20:54:11.731Z,3.12
2023-02-24T20:56:39.944Z,3.17
2023-02-24T20:59:07.714Z,3.12
2023-02-24T21:01:35.176Z,3.14
2023-02-24T21:04:02.326Z,3.15
2023-02-24T21:06:29.243Z,3.19
2023-02-24T21:08:58.983Z,3.19
2023-02-24T21:11:26.749Z,3.27
2023-02-24T21:13:53.620Z,3.22
2023-02-24T21:16:21.019Z,3.17
2023-02-24T21:18:48.959Z,3.22
2023-02-24T21:21:15.914Z,3.21
2023-02-24T21:23:43.164Z,3.22
2023-02-24T21:26:10.462Z,3.20
2023-02-24T21:28:37.636Z,3.23
2023-02-24T21:31:09.780Z,3.27
2023-02-24T21:33:36.905Z,3.30
2023-02-24T21:36:10.565Z,3.29
2023-02-24T21:38:37.930Z,3.33
2023-02-24T21:41:08.572Z,3.27
2023-02-24T21:43:35.418Z,3.35
2023-02-24T21:46:05.407Z,3.36
2023-02-24T21:48:35.558Z,3.35
2023-02-24T21:51:04.418Z,3.35
2023-02-24T21:53:35.360Z,3.37
2023-02-24T21:56:23.653Z,3.39
2023-02-24T21:58:56.417Z,3.49
2023-02-24T22:01:34.212Z,3.46
2023-02-24T22:04:03.165Z,3.45
2023-02-24T22:06:31.899Z,3.45
2023-02-24T22:08:59.843Z,3.43
2023-02-24T22:11:26.391Z,3.44
2023-02-24T22:13:52.859Z,3.39
2023-02-24T22:16:24.602Z,3.46
2023-02-24T22:18:52.812Z,3.44
2023-02-24T22:21:21.989Z,3.42
2023-02-24T22:23:50.540Z,3.44
2023-02-24T22:26:17.660Z,3.42
2023-02-24T22:28:46.671Z,3.44
2023-02-24T22:31:15.423Z,3.45
2023-02-24T22:33:43.245Z,3.50
2023-02-24T22:36:10.828Z,3.55
2023-02-24T22:38:38.676Z,3.50
2023-02-24T22:41:11.413Z,3.47
2023-02-24T22:43:37.950Z,3.44
2023-02-24T22:46:06.574Z,3.38
2023-02-24T22:48:35.930Z,3.37
2023-02-24T22:51:04.336Z,3.28
2023-02-24T22:53:33.127Z,3.31
2023-02-24T22:56:00.160Z,3.37
2023-02-24T22:58:26.663Z,3.31
2023-02-24T23:00:54.525Z,3.33
2023-02-24T23:03:23.489Z,3.32
2023-02-24T23:06:04.527Z,3.26
2023-02-24T23:08:33.632Z,3.31
2023-02-24T23:11:12.402Z,3.26
2023-02-24T23:13:40.297Z,3.26
2023-02-24T23:16:09.804Z,3.24
2023-02-24T23:18:37.206Z,3.23
2023-02-24T23:21:06.897Z,3.22
2023-02-24T23:23:33.775Z,3.28
2023-02-24T23:26:00.821Z,3.30
2023-02-24T23:28:27.836Z,3.37
2023-02-24T23:30:55.442Z,3.35
2023-02-24T23:33:22.734Z,3.37
2023-02-24T23:35:49.870Z,3.40
2023-02-24T23:38:16.713Z,3.40
2023-02-24T23:40:49.956Z,3.39
2023-02-24T23:43:17.353Z,3.38
2023-02-24T23:45:44.369Z,3.38
2023-02-24T23:48:13.071Z,3.34
2023-02-24T23:50:41.789Z,3.25
2023-02-24T23:53:08.949Z,3.20
2023-02-24T23:55:35.871Z,3.13
2023-02-24T23:58:03.470Z,3.10
